sensor_id;sensor_type;location;lat;lon;timestamp;P1;durP1;ratioP1;P2;durP2;ratioP2
6463;SDS011;3265;42.694;23.282;2022-08-19T00:01:19;11.63;;;7.05;;
6463;SDS011;3265;42.694;23.282;2022-08-19T00:03:46;8.75;;;7.15;;
6463;SDS011;3265;42.694;23.282;2022-08-19T00:06:12;11.07;;;7.22;;
6463;SDS011;3265;42.694;23.282;2022-08-19T00:08:39;17.17;;;7.10;;
6463;SDS011;3265;42.694;23.282;2022-08-19T00:11:06;12.05;;;7.35;;
6463;SDS011;3265;42.694;23.282;2022-08-19T00:13:33;16.25;;;7.43;;
6463;SDS011;3265;42.694;23.282;2022-08-19T00:16:00;16.55;;;7.32;;
6463;SDS011;3265;42.694;23.282;2022-08-19T00:18:29;18.05;;;7.97;;
6463;SDS011;3265;42.694;23.282;2022-08-19T00:20:57;12.50;;;7.32;;
6463;SDS011;3265;42.694;23.282;2022-08-19T00:23:25;12.63;;;6.90;;
6463;SDS011;3265;42.694;23.282;2022-08-19T00:25:52;14.98;;;7.50;;
6463;SDS011;3265;42.694;23.282;2022-08-19T00:28:19;9.55;;;6.60;;
6463;SDS011;3265;42.694;23.282;2022-08-19T00:30:46;12.32;;;7.47;;
6463;SDS011;3265;42.694;23.282;2022-08-19T00:33:13;16.40;;;7.25;;
6463;SDS011;3265;42.694;23.282;2022-08-19T00:35:43;12.38;;;6.70;;
6463;SDS011;3265;42.694;23.282;2022-08-19T00:38:09;10.40;;;6.95;;
6463;SDS011;3265;42.694;23.282;2022-08-19T00:40:36;13.23;;;7.43;;
6463;SDS011;3265;42.694;23.282;2022-08-19T00:43:07;12.18;;;7.80;;
6463;SDS011;3265;42.694;23.282;2022-08-19T00:45:35;10.95;;;7.18;;
6463;SDS011;3265;42.694;23.282;2022-08-19T00:48:02;11.18;;;7.30;;
6463;SDS011;3265;42.694;23.282;2022-08-19T00:50:30;15.25;;;6.82;;
6463;SDS011;3265;42.694;23.282;2022-08-19T00:52:59;11.82;;;7.40;;
6463;SDS011;3265;42.694;23.282;2022-08-19T00:55:29;12.75;;;7.05;;
6463;SDS011;3265;42.694;23.282;2022-08-19T00:57:59;9.20;;;6.80;;
6463;SDS011;3265;42.694;23.282;2022-08-19T01:00:29;8.60;;;6.90;;
6463;SDS011;3265;42.694;23.282;2022-08-19T01:02:58;10.38;;;7.07;;
6463;SDS011;3265;42.694;23.282;2022-08-19T01:05:26;17.15;;;8.23;;
6463;SDS011;3265;42.694;23.282;2022-08-19T01:07:55;10.65;;;6.95;;
6463;SDS011;3265;42.694;23.282;2022-08-19T01:10:26;15.35;;;7.47;;
6463;SDS011;3265;42.694;23.282;2022-08-19T01:12:57;15.40;;;7.40;;
6463;SDS011;3265;42.694;23.282;2022-08-19T01:15:26;14.77;;;7.25;;
6463;SDS011;3265;42.694;23.282;2022-08-19T01:17:57;15.80;;;7.53;;
6463;SDS011;3265;42.694;23.282;2022-08-19T01:20:28;9.00;;;7.57;;
6463;SDS011;3265;42.694;23.282;2022-08-19T01:22:57;11.57;;;7.22;;
6463;SDS011;3265;42.694;23.282;2022-08-19T01:25:26;15.32;;;7.68;;
6463;SDS011;3265;42.694;23.282;2022-08-19T01:27:56;13.60;;;7.05;;
6463;SDS011;3265;42.694;23.282;2022-08-19T01:30:25;13.35;;;7.18;;
6463;SDS011;3265;42.694;23.282;2022-08-19T01:32:54;11.95;;;7.47;;
6463;SDS011;3265;42.694;23.282;2022-08-19T01:35:22;8.90;;;7.20;;
6463;SDS011;3265;42.694;23.282;2022-08-19T01:37:50;12.70;;;7.15;;
6463;SDS011;3265;42.694;23.282;2022-08-19T01:40:20;10.45;;;6.80;;
6463;SDS011;3265;42.694;23.282;2022-08-19T01:42:50;12.43;;;7.10;;
6463;SDS011;3265;42.694;23.282;2022-08-19T01:45:18;13.07;;;7.57;;
6463;SDS011;3265;42.694;23.282;2022-08-19T01:47:46;12.38;;;7.50;;
6463;SDS011;3265;42.694;23.282;2022-08-19T01:50:15;10.07;;;7.30;;
6463;SDS011;3265;42.694;23.282;2022-08-19T01:52:42;11.65;;;7.57;;
6463;SDS011;3265;42.694;23.282;2022-08-19T01:55:10;14.77;;;8.05;;
6463;SDS011;3265;42.694;23.282;2022-08-19T01:57:41;12.95;;;8.60;;
6463;SDS011;3265;42.694;23.282;2022-08-19T02:00:12;14.75;;;8.57;;
6463;SDS011;3265;42.694;23.282;2022-08-19T02:02:41;11.55;;;9.27;;
6463;SDS011;3265;42.694;23.282;2022-08-19T02:05:08;20.40;;;9.75;;
6463;SDS011;3265;42.694;23.282;2022-08-19T02:07:35;15.35;;;9.45;;
6463;SDS011;3265;42.694;23.282;2022-08-19T02:10:03;17.70;;;9.55;;
6463;SDS011;3265;42.694;23.282;2022-08-19T02:12:31;15.65;;;9.40;;
6463;SDS011;3265;42.694;23.282;2022-08-19T02:14:59;12.55;;;9.48;;
6463;SDS011;3265;42.694;23.282;2022-08-19T02:17:27;13.10;;;8.88;;
6463;SDS011;3265;42.694;23.282;2022-08-19T02:19:54;18.15;;;8.55;;
6463;SDS011;3265;42.694;23.282;2022-08-19T02:22:21;18.73;;;8.70;;
6463;SDS011;3265;42.694;23.282;2022-08-19T02:24:49;14.50;;;9.27;;
6463;SDS011;3265;42.694;23.282;2022-08-19T02:27:16;14.88;;;9.05;;
6463;SDS011;3265;42.694;23.282;2022-08-19T02:29:42;17.52;;;8.80;;
6463;SDS011;3265;42.694;23.282;2022-08-19T02:32:13;13.88;;;9.00;;
6463;SDS011;3265;42.694;23.282;2022-08-19T02:34:39;13.23;;;9.25;;
6463;SDS011;3265;42.694;23.282;2022-08-19T02:37:07;22.08;;;9.70;;
6463;SDS011;3265;42.694;23.282;2022-08-19T02:39:54;13.13;;;9.18;;
6463;SDS011;3265;42.694;23.282;2022-08-19T02:42:20;14.88;;;8.43;;
6463;SDS011;3265;42.694;23.282;2022-08-19T02:44:47;10.77;;;8.10;;
6463;SDS011;3265;42.694;23.282;2022-08-19T02:47:15;12.18;;;8.10;;
6463;SDS011;3265;42.694;23.282;2022-08-19T02:49:43;10.93;;;7.95;;
6463;SDS011;3265;42.694;23.282;2022-08-19T02:52:10;14.00;;;7.93;;
6463;SDS011;3265;42.694;23.282;2022-08-19T02:54:38;12.13;;;7.95;;
6463;SDS011;3265;42.694;23.282;2022-08-19T02:57:04;12.77;;;7.75;;
6463;SDS011;3265;42.694;23.282;2022-08-19T02:59:33;15.13;;;8.45;;
6463;SDS011;3265;42.694;23.282;2022-08-19T03:02:00;11.95;;;8.40;;
6463;SDS011;3265;42.694;23.282;2022-08-19T03:04:28;13.13;;;8.75;;
6463;SDS011;3265;42.694;23.282;2022-08-19T03:06:55;18.88;;;9.07;;
6463;SDS011;3265;42.694;23.282;2022-08-19T03:09:22;18.00;;;8.95;;
6463;SDS011;3265;42.694;23.282;2022-08-19T03:11:49;15.77;;;9.50;;
6463;SDS011;3265;42.694;23.282;2022-08-19T03:14:16;18.45;;;9.07;;
6463;SDS011;3265;42.694;23.282;2022-08-19T03:16:44;15.35;;;8.65;;
6463;SDS011;3265;42.694;23.282;2022-08-19T03:19:13;16.33;;;8.70;;
6463;SDS011;3265;42.694;23.282;2022-08-19T03:21:43;20.42;;;9.18;;
6463;SDS011;3265;42.694;23.282;2022-08-19T03:24:10;15.63;;;9.55;;
6463;SDS011;3265;42.694;23.282;2022-08-19T03:26:39;15.57;;;10.05;;
6463;SDS011;3265;42.694;23.282;2022-08-19T03:29:06;11.07;;;8.90;;
6463;SDS011;3265;42.694;23.282;2022-08-19T03:31:36;12.20;;;9.52;;
6463;SDS011;3265;42.694;23.282;2022-08-19T03:34:04;12.27;;;9.20;;
6463;SDS011;3265;42.694;23.282;2022-08-19T03:36:30;15.15;;;9.70;;
6463;SDS011;3265;42.694;23.282;2022-08-19T03:38:59;12.95;;;9.60;;
6463;SDS011;3265;42.694;23.282;2022-08-19T03:41:28;14.55;;;9.07;;
6463;SDS011;3265;42.694;23.282;2022-08-19T03:43:57;14.43;;;10.02;;
6463;SDS011;3265;42.694;23.282;2022-08-19T03:46:25;16.77;;;9.75;;
6463;SDS011;3265;42.694;23.282;2022-08-19T03:48:55;13.30;;;9.68;;
6463;SDS011;3265;42.694;23.282;2022-08-19T03:51:26;16.92;;;11.02;;
6463;SDS011;3265;42.694;23.282;2022-08-19T03:53:56;21.63;;;10.15;;
6463;SDS011;3265;42.694;23.282;2022-08-19T03:56:26;20.88;;;9.98;;
6463;SDS011;3265;42.694;23.282;2022-08-19T03:58:53;12.55;;;9.65;;
6463;SDS011;3265;42.694;23.282;2022-08-19T04:01:22;14.13;;;10.02;;
6463;SDS011;3265;42.694;23.282;2022-08-19T04:03:51;29.65;;;10.60;;
6463;SDS011;3265;42.694;23.282;2022-08-19T04:06:19;21.65;;;10.63;;
6463;SDS011;3265;42.694;23.282;2022-08-19T04:08:49;20.20;;;10.32;;
6463;SDS011;3265;42.694;23.282;2022-08-19T04:11:20;15.32;;;11.05;;
6463;SDS011;3265;42.694;23.282;2022-08-19T04:13:51;20.92;;;10.73;;
6463;SDS011;3265;42.694;23.282;2022-08-19T04:16:20;22.05;;;11.45;;
6463;SDS011;3265;42.694;23.282;2022-08-19T04:18:48;16.63;;;11.13;;
6463;SDS011;3265;42.694;23.282;2022-08-19T04:21:16;14.85;;;10.07;;
6463;SDS011;3265;42.694;23.282;2022-08-19T04:23:44;15.45;;;9.77;;
6463;SDS011;3265;42.694;23.282;2022-08-19T04:26:12;21.02;;;9.90;;
6463;SDS011;3265;42.694;23.282;2022-08-19T04:28:40;16.50;;;10.45;;
6463;SDS011;3265;42.694;23.282;2022-08-19T04:31:12;20.42;;;10.82;;
6463;SDS011;3265;42.694;23.282;2022-08-19T04:33:40;22.40;;;10.30;;
6463;SDS011;3265;42.694;23.282;2022-08-19T04:36:07;23.48;;;11.15;;
6463;SDS011;3265;42.694;23.282;2022-08-19T04:38:41;20.33;;;10.93;;
6463;SDS011;3265;42.694;23.282;2022-08-19T04:41:08;21.15;;;11.63;;
6463;SDS011;3265;42.694;23.282;2022-08-19T04:43:52;14.98;;;10.38;;
6463;SDS011;3265;42.694;23.282;2022-08-19T04:46:20;16.13;;;9.52;;
6463;SDS011;3265;42.694;23.282;2022-08-19T04:48:47;17.65;;;10.55;;
6463;SDS011;3265;42.694;23.282;2022-08-19T04:51:14;21.27;;;10.70;;
6463;SDS011;3265;42.694;23.282;2022-08-19T04:53:42;13.85;;;10.65;;
6463;SDS011;3265;42.694;23.282;2022-08-19T04:56:10;16.88;;;10.45;;
6463;SDS011;3265;42.694;23.282;2022-08-19T04:58:40;13.68;;;9.25;;
6463;SDS011;3265;42.694;23.282;2022-08-19T05:01:08;14.10;;;9.32;;
6463;SDS011;3265;42.694;23.282;2022-08-19T05:03:39;13.57;;;9.02;;
6463;SDS011;3265;42.694;23.282;2022-08-19T05:06:06;17.05;;;10.27;;
6463;SDS011;3265;42.694;23.282;2022-08-19T05:08:35;12.40;;;9.50;;
6463;SDS011;3265;42.694;23.282;2022-08-19T05:11:07;17.92;;;9.68;;
6463;SDS011;3265;42.694;23.282;2022-08-19T05:13:36;16.58;;;9.38;;
6463;SDS011;3265;42.694;23.282;2022-08-19T05:16:04;15.32;;;9.45;;
6463;SDS011;3265;42.694;23.282;2022-08-19T05:18:31;11.38;;;9.32;;
6463;SDS011;3265;42.694;23.282;2022-08-19T05:21:17;18.50;;;10.20;;
6463;SDS011;3265;42.694;23.282;2022-08-19T05:24:02;17.83;;;10.32;;
6463;SDS011;3265;42.694;23.282;2022-08-19T05:26:33;19.60;;;9.95;;
6463;SDS011;3265;42.694;23.282;2022-08-19T05:29:00;17.05;;;10.90;;
6463;SDS011;3265;42.694;23.282;2022-08-19T05:31:27;20.30;;;11.00;;
6463;SDS011;3265;42.694;23.282;2022-08-19T05:33:54;25.92;;;11.70;;
6463;SDS011;3265;42.694;23.282;2022-08-19T05:36:22;18.17;;;11.25;;
6463;SDS011;3265;42.694;23.282;2022-08-19T05:38:49;15.88;;;11.00;;
6463;SDS011;3265;42.694;23.282;2022-08-19T05:41:17;18.17;;;11.20;;
6463;SDS011;3265;42.694;23.282;2022-08-19T05:43:45;19.27;;;11.07;;
6463;SDS011;3265;42.694;23.282;2022-08-19T05:46:16;21.95;;;11.35;;
6463;SDS011;3265;42.694;23.282;2022-08-19T05:48:44;23.00;;;11.93;;
6463;SDS011;3265;42.694;23.282;2022-08-19T05:51:11;19.65;;;11.65;;
6463;SDS011;3265;42.694;23.282;2022-08-19T05:53:40;21.33;;;12.43;;
6463;SDS011;3265;42.694;23.282;2022-08-19T05:56:09;19.73;;;12.65;;
6463;SDS011;3265;42.694;23.282;2022-08-19T05:58:38;22.50;;;12.43;;
6463;SDS011;3265;42.694;23.282;2022-08-19T06:01:09;19.58;;;11.93;;
6463;SDS011;3265;42.694;23.282;2022-08-19T06:03:38;24.30;;;12.30;;
6463;SDS011;3265;42.694;23.282;2022-08-19T06:06:05;23.83;;;12.10;;
6463;SDS011;3265;42.694;23.282;2022-08-19T06:08:33;24.60;;;11.60;;
6463;SDS011;3265;42.694;23.282;2022-08-19T06:11:16;19.13;;;11.50;;
6463;SDS011;3265;42.694;23.282;2022-08-19T06:13:46;17.50;;;11.88;;
6463;SDS011;3265;42.694;23.282;2022-08-19T06:16:16;21.70;;;11.70;;
6463;SDS011;3265;42.694;23.282;2022-08-19T06:18:47;24.77;;;10.80;;
6463;SDS011;3265;42.694;23.282;2022-08-19T06:21:16;17.17;;;11.00;;
6463;SDS011;3265;42.694;23.282;2022-08-19T06:23:44;16.45;;;10.38;;
6463;SDS011;3265;42.694;23.282;2022-08-19T06:26:12;19.17;;;10.25;;
6463;SDS011;3265;42.694;23.282;2022-08-19T06:28:41;19.83;;;10.15;;
6463;SDS011;3265;42.694;23.282;2022-08-19T06:31:11;14.25;;;10.15;;
6463;SDS011;3265;42.694;23.282;2022-08-19T06:33:39;17.92;;;9.77;;
6463;SDS011;3265;42.694;23.282;2022-08-19T06:36:07;16.48;;;9.85;;
6463;SDS011;3265;42.694;23.282;2022-08-19T06:38:42;15.13;;;9.75;;
6463;SDS011;3265;42.694;23.282;2022-08-19T06:41:08;14.70;;;9.20;;
6463;SDS011;3265;42.694;23.282;2022-08-19T06:43:36;19.92;;;9.98;;
6463;SDS011;3265;42.694;23.282;2022-08-19T06:46:04;19.65;;;9.32;;
6463;SDS011;3265;42.694;23.282;2022-08-19T06:48:36;13.77;;;9.65;;
6463;SDS011;3265;42.694;23.282;2022-08-19T06:51:03;15.57;;;9.73;;
6463;SDS011;3265;42.694;23.282;2022-08-19T06:53:31;20.98;;;10.15;;
6463;SDS011;3265;42.694;23.282;2022-08-19T06:55:58;18.63;;;10.60;;
6463;SDS011;3265;42.694;23.282;2022-08-19T06:58:27;19.70;;;10.07;;
6463;SDS011;3265;42.694;23.282;2022-08-19T07:00:57;22.75;;;11.68;;
6463;SDS011;3265;42.694;23.282;2022-08-19T07:03:27;18.73;;;11.82;;
6463;SDS011;3265;42.694;23.282;2022-08-19T07:05:56;16.48;;;10.90;;
6463;SDS011;3265;42.694;23.282;2022-08-19T07:08:24;14.65;;;10.80;;
6463;SDS011;3265;42.694;23.282;2022-08-19T07:10:52;25.38;;;11.52;;
6463;SDS011;3265;42.694;23.282;2022-08-19T07:13:19;16.92;;;10.73;;
6463;SDS011;3265;42.694;23.282;2022-08-19T07:15:47;21.02;;;10.40;;
6463;SDS011;3265;42.694;23.282;2022-08-19T07:18:16;18.70;;;11.98;;
6463;SDS011;3265;42.694;23.282;2022-08-19T07:20:45;17.58;;;11.02;;
6463;SDS011;3265;42.694;23.282;2022-08-19T07:23:12;17.23;;;10.35;;
6463;SDS011;3265;42.694;23.282;2022-08-19T07:25:39;14.02;;;10.20;;
6463;SDS011;3265;42.694;23.282;2022-08-19T07:28:06;15.77;;;10.25;;
6463;SDS011;3265;42.694;23.282;2022-08-19T07:30:36;16.00;;;9.52;;
6463;SDS011;3265;42.694;23.282;2022-08-19T07:33:05;18.95;;;10.85;;
6463;SDS011;3265;42.694;23.282;2022-08-19T07:35:33;18.88;;;10.18;;
6463;SDS011;3265;42.694;23.282;2022-08-19T07:38:01;17.05;;;9.65;;
6463;SDS011;3265;42.694;23.282;2022-08-19T07:40:29;17.05;;;10.00;;
6463;SDS011;3265;42.694;23.282;2022-08-19T07:42:56;14.45;;;9.45;;
6463;SDS011;3265;42.694;23.282;2022-08-19T07:45:23;16.90;;;9.30;;
6463;SDS011;3265;42.694;23.282;2022-08-19T07:47:50;17.48;;;9.52;;
6463;SDS011;3265;42.694;23.282;2022-08-19T07:50:18;17.77;;;8.63;;
6463;SDS011;3265;42.694;23.282;2022-08-19T07:52:46;12.98;;;9.13;;
6463;SDS011;3265;42.694;23.282;2022-08-19T07:55:16;13.77;;;8.75;;
6463;SDS011;3265;42.694;23.282;2022-08-19T07:57:45;14.02;;;8.80;;
6463;SDS011;3265;42.694;23.282;2022-08-19T08:00:12;18.80;;;9.27;;
6463;SDS011;3265;42.694;23.282;2022-08-19T08:02:40;10.57;;;8.20;;
6463;SDS011;3265;42.694;23.282;2022-08-19T08:05:08;14.18;;;8.18;;
6463;SDS011;3265;42.694;23.282;2022-08-19T08:07:52;17.83;;;6.70;;
6463;SDS011;3265;42.694;23.282;2022-08-19T08:10:53;10.30;;;7.85;;
6463;SDS011;3265;42.694;23.282;2022-08-19T08:13:19;13.23;;;8.90;;
6463;SDS011;3265;42.694;23.282;2022-08-19T08:15:46;13.27;;;9.38;;
6463;SDS011;3265;42.694;23.282;2022-08-19T08:18:13;13.32;;;9.18;;
6463;SDS011;3265;42.694;23.282;2022-08-19T08:20:40;12.48;;;8.52;;
6463;SDS011;3265;42.694;23.282;2022-08-19T08:23:07;14.32;;;8.82;;
6463;SDS011;3265;42.694;23.282;2022-08-19T08:25:50;18.17;;;8.90;;
6463;SDS011;3265;42.694;23.282;2022-08-19T08:28:19;15.38;;;8.63;;
6463;SDS011;3265;42.694;23.282;2022-08-19T08:30:47;17.88;;;8.93;;
6463;SDS011;3265;42.694;23.282;2022-08-19T08:33:17;26.35;;;17.75;;
6463;SDS011;3265;42.694;23.282;2022-08-19T08:35:44;19.23;;;8.52;;
6463;SDS011;3265;42.694;23.282;2022-08-19T08:38:12;13.27;;;8.07;;
6463;SDS011;3265;42.694;23.282;2022-08-19T08:40:44;13.40;;;7.88;;
6463;SDS011;3265;42.694;23.282;2022-08-19T08:43:21;15.95;;;7.97;;
6463;SDS011;3265;42.694;23.282;2022-08-19T08:45:52;9.98;;;7.55;;
6463;SDS011;3265;42.694;23.282;2022-08-19T08:48:30;11.63;;;7.25;;
6463;SDS011;3265;42.694;23.282;2022-08-19T08:51:05;13.35;;;7.60;;
6463;SDS011;3265;42.694;23.282;2022-08-19T08:53:36;10.55;;;6.97;;
6463;SDS011;3265;42.694;23.282;2022-08-19T08:56:04;10.20;;;6.50;;
6463;SDS011;3265;42.694;23.282;2022-08-19T08:58:36;15.15;;;6.45;;
6463;SDS011;3265;42.694;23.282;2022-08-19T09:01:21;14.70;;;6.38;;
6463;SDS011;3265;42.694;23.282;2022-08-19T09:03:55;12.27;;;6.80;;
6463;SDS011;3265;42.694;23.282;2022-08-19T09:07:09;9.43;;;6.07;;
6463;SDS011;3265;42.694;23.282;2022-08-19T09:09:54;14.88;;;6.90;;
6463;SDS011;3265;42.694;23.282;2022-08-19T09:12:31;8.13;;;5.72;;
6463;SDS011;3265;42.694;23.282;2022-08-19T09:15:07;14.10;;;5.28;;
6463;SDS011;3265;42.694;23.282;2022-08-19T09:17:47;8.00;;;5.70;;
6463;SDS011;3265;42.694;23.282;2022-08-19T09:20:14;6.63;;;5.22;;
6463;SDS011;3265;42.694;23.282;2022-08-19T09:22:45;12.00;;;5.78;;
6463;SDS011;3265;42.694;23.282;2022-08-19T09:25:16;8.50;;;5.63;;
6463;SDS011;3265;42.694;23.282;2022-08-19T09:27:52;11.27;;;5.32;;
6463;SDS011;3265;42.694;23.282;2022-08-19T09:30:23;9.98;;;4.40;;
6463;SDS011;3265;42.694;23.282;2022-08-19T09:32:52;6.38;;;4.43;;
6463;SDS011;3265;42.694;23.282;2022-08-19T09:35:20;6.57;;;4.70;;
6463;SDS011;3265;42.694;23.282;2022-08-19T09:37:48;6.18;;;4.75;;
6463;SDS011;3265;42.694;23.282;2022-08-19T09:40:16;8.30;;;4.85;;
6463;SDS011;3265;42.694;23.282;2022-08-19T09:42:44;5.18;;;4.57;;
6463;SDS011;3265;42.694;23.282;2022-08-19T09:45:13;8.15;;;4.40;;
6463;SDS011;3265;42.694;23.282;2022-08-19T09:47:42;5.95;;;4.45;;
6463;SDS011;3265;42.694;23.282;2022-08-19T09:50:10;6.68;;;4.32;;
6463;SDS011;3265;42.694;23.282;2022-08-19T09:52:38;5.90;;;4.30;;
6463;SDS011;3265;42.694;23.282;2022-08-19T09:55:07;8.25;;;4.43;;
6463;SDS011;3265;42.694;23.282;2022-08-19T09:57:36;6.70;;;4.43;;
6463;SDS011;3265;42.694;23.282;2022-08-19T10:00:03;5.68;;;4.38;;
6463;SDS011;3265;42.694;23.282;2022-08-19T10:02:34;6.00;;;4.70;;
6463;SDS011;3265;42.694;23.282;2022-08-19T10:05:03;6.63;;;4.30;;
6463;SDS011;3265;42.694;23.282;2022-08-19T10:07:48;5.97;;;4.30;;
6463;SDS011;3265;42.694;23.282;2022-08-19T10:10:15;7.22;;;3.92;;
6463;SDS011;3265;42.694;23.282;2022-08-19T10:12:42;7.80;;;4.55;;
6463;SDS011;3265;42.694;23.282;2022-08-19T10:15:11;4.70;;;4.28;;
6463;SDS011;3265;42.694;23.282;2022-08-19T10:17:38;6.43;;;4.65;;
6463;SDS011;3265;42.694;23.282;2022-08-19T10:20:06;8.77;;;4.60;;
6463;SDS011;3265;42.694;23.282;2022-08-19T10:22:34;8.57;;;5.18;;
6463;SDS011;3265;42.694;23.282;2022-08-19T10:25:03;6.78;;;4.70;;
6463;SDS011;3265;42.694;23.282;2022-08-19T10:27:31;7.63;;;4.72;;
6463;SDS011;3265;42.694;23.282;2022-08-19T10:29:58;8.93;;;5.10;;
6463;SDS011;3265;42.694;23.282;2022-08-19T10:32:24;8.40;;;4.95;;
6463;SDS011;3265;42.694;23.282;2022-08-19T10:34:53;6.53;;;4.60;;
6463;SDS011;3265;42.694;23.282;2022-08-19T10:37:22;7.38;;;4.60;;
6463;SDS011;3265;42.694;23.282;2022-08-19T10:39:49;5.38;;;4.72;;
6463;SDS011;3265;42.694;23.282;2022-08-19T10:42:16;8.65;;;4.78;;
6463;SDS011;3265;42.694;23.282;2022-08-19T10:44:43;9.65;;;4.60;;
6463;SDS011;3265;42.694;23.282;2022-08-19T10:47:11;7.65;;;4.20;;
6463;SDS011;3265;42.694;23.282;2022-08-19T10:49:38;8.65;;;4.72;;
6463;SDS011;3265;42.694;23.282;2022-08-19T10:52:19;6.82;;;5.30;;
6463;SDS011;3265;42.694;23.282;2022-08-19T10:55:04;17.52;;;8.38;;
6463;SDS011;3265;42.694;23.282;2022-08-19T10:57:50;10.65;;;6.38;;
6463;SDS011;3265;42.694;23.282;2022-08-19T11:00:18;22.95;;;11.43;;
6463;SDS011;3265;42.694;23.282;2022-08-19T11:02:45;14.10;;;6.82;;
6463;SDS011;3265;42.694;23.282;2022-08-19T11:05:11;9.55;;;5.20;;
6463;SDS011;3265;42.694;23.282;2022-08-19T11:07:39;8.32;;;5.22;;
6463;SDS011;3265;42.694;23.282;2022-08-19T11:10:09;11.30;;;5.22;;
6463;SDS011;3265;42.694;23.282;2022-08-19T11:12:38;6.13;;;4.50;;
6463;SDS011;3265;42.694;23.282;2022-08-19T11:15:07;9.35;;;4.93;;
6463;SDS011;3265;42.694;23.282;2022-08-19T11:17:36;8.57;;;5.10;;
6463;SDS011;3265;42.694;23.282;2022-08-19T11:20:06;8.35;;;4.75;;
6463;SDS011;3265;42.694;23.282;2022-08-19T11:22:33;8.73;;;5.28;;
6463;SDS011;3265;42.694;23.282;2022-08-19T11:25:01;7.38;;;4.85;;
6463;SDS011;3265;42.694;23.282;2022-08-19T11:27:30;6.13;;;4.97;;
6463;SDS011;3265;42.694;23.282;2022-08-19T11:29:57;7.97;;;4.97;;
6463;SDS011;3265;42.694;23.282;2022-08-19T11:32:23;11.13;;;5.18;;
6463;SDS011;3265;42.694;23.282;2022-08-19T11:34:50;5.45;;;4.40;;
6463;SDS011;3265;42.694;23.282;2022-08-19T11:37:17;10.20;;;4.60;;
6463;SDS011;3265;42.694;23.282;2022-08-19T11:39:44;6.47;;;4.53;;
6463;SDS011;3265;42.694;23.282;2022-08-19T11:42:11;10.27;;;4.57;;
6463;SDS011;3265;42.694;23.282;2022-08-19T11:44:56;7.45;;;4.47;;
6463;SDS011;3265;42.694;23.282;2022-08-19T11:47:23;8.75;;;4.38;;
6463;SDS011;3265;42.694;23.282;2022-08-19T11:49:51;8.15;;;5.13;;
6463;SDS011;3265;42.694;23.282;2022-08-19T11:52:18;11.60;;;4.78;;
6463;SDS011;3265;42.694;23.282;2022-08-19T11:54:45;8.07;;;4.65;;
6463;SDS011;3265;42.694;23.282;2022-08-19T11:57:12;7.75;;;4.90;;
6463;SDS011;3265;42.694;23.282;2022-08-19T11:59:41;6.97;;;5.45;;
6463;SDS011;3265;42.694;23.282;2022-08-19T12:02:10;5.75;;;4.80;;
6463;SDS011;3265;42.694;23.282;2022-08-19T12:04:36;6.30;;;4.43;;
6463;SDS011;3265;42.694;23.282;2022-08-19T12:07:03;7.47;;;5.25;;
6463;SDS011;3265;42.694;23.282;2022-08-19T12:09:30;8.13;;;5.15;;
6463;SDS011;3265;42.694;23.282;2022-08-19T12:11:59;8.73;;;4.30;;
6463;SDS011;3265;42.694;23.282;2022-08-19T12:14:27;8.77;;;4.97;;
6463;SDS011;3265;42.694;23.282;2022-08-19T12:16:55;7.95;;;4.97;;
6463;SDS011;3265;42.694;23.282;2022-08-19T12:19:23;9.68;;;4.30;;
6463;SDS011;3265;42.694;23.282;2022-08-19T12:21:51;6.45;;;4.45;;
6463;SDS011;3265;42.694;23.282;2022-08-19T12:24:20;8.05;;;4.03;;
6463;SDS011;3265;42.694;23.282;2022-08-19T12:26:48;6.65;;;4.60;;
6463;SDS011;3265;42.694;23.282;2022-08-19T12:29:16;5.72;;;4.45;;
6463;SDS011;3265;42.694;23.282;2022-08-19T12:31:43;8.00;;;4.45;;
6463;SDS011;3265;42.694;23.282;2022-08-19T12:34:09;7.95;;;4.90;;
6463;SDS011;3265;42.694;23.282;2022-08-19T12:36:39;5.55;;;4.72;;
6463;SDS011;3265;42.694;23.282;2022-08-19T12:39:05;6.95;;;4.97;;
6463;SDS011;3265;42.694;23.282;2022-08-19T12:41:33;7.38;;;4.70;;
6463;SDS011;3265;42.694;23.282;2022-08-19T12:44:00;8.55;;;5.38;;
6463;SDS011;3265;42.694;23.282;2022-08-19T12:46:27;10.35;;;4.70;;
6463;SDS011;3265;42.694;23.282;2022-08-19T12:48:53;7.50;;;5.30;;
6463;SDS011;3265;42.694;23.282;2022-08-19T12:51:20;6.50;;;4.57;;
6463;SDS011;3265;42.694;23.282;2022-08-19T12:53:49;7.25;;;4.65;;
6463;SDS011;3265;42.694;23.282;2022-08-19T12:56:16;7.28;;;4.70;;
6463;SDS011;3265;42.694;23.282;2022-08-19T12:58:44;7.43;;;5.07;;
6463;SDS011;3265;42.694;23.282;2022-08-19T13:01:12;9.18;;;5.15;;
6463;SDS011;3265;42.694;23.282;2022-08-19T13:03:42;6.32;;;4.70;;
6463;SDS011;3265;42.694;23.282;2022-08-19T13:06:11;8.18;;;5.28;;
6463;SDS011;3265;42.694;23.282;2022-08-19T13:08:38;8.27;;;5.25;;
6463;SDS011;3265;42.694;23.282;2022-08-19T13:11:14;8.27;;;5.13;;
6463;SDS011;3265;42.694;23.282;2022-08-19T13:13:47;8.75;;;4.72;;
6463;SDS011;3265;42.694;23.282;2022-08-19T13:16:22;8.93;;;4.70;;
6463;SDS011;3265;42.694;23.282;2022-08-19T13:19:13;12.73;;;5.30;;
6463;SDS011;3265;42.694;23.282;2022-08-19T13:21:39;5.75;;;4.93;;
6463;SDS011;3265;42.694;23.282;2022-08-19T13:24:06;9.98;;;4.90;;
6463;SDS011;3265;42.694;23.282;2022-08-19T13:26:35;7.53;;;4.80;;
6463;SDS011;3265;42.694;23.282;2022-08-19T13:29:01;8.23;;;5.20;;
6463;SDS011;3265;42.694;23.282;2022-08-19T13:31:51;7.10;;;4.88;;
6463;SDS011;3265;42.694;23.282;2022-08-19T13:34:35;7.05;;;4.57;;
6463;SDS011;3265;42.694;23.282;2022-08-19T13:37:06;10.63;;;5.03;;
6463;SDS011;3265;42.694;23.282;2022-08-19T13:39:34;9.35;;;5.22;;
6463;SDS011;3265;42.694;23.282;2022-08-19T13:42:03;7.95;;;4.22;;
6463;SDS011;3265;42.694;23.282;2022-08-19T13:44:32;10.52;;;4.88;;
6463;SDS011;3265;42.694;23.282;2022-08-19T13:46:59;5.00;;;4.43;;
6463;SDS011;3265;42.694;23.282;2022-08-19T13:49:30;6.45;;;4.85;;
6463;SDS011;3265;42.694;23.282;2022-08-19T13:51:57;5.22;;;4.60;;
6463;SDS011;3265;42.694;23.282;2022-08-19T13:54:24;7.20;;;4.47;;
6463;SDS011;3265;42.694;23.282;2022-08-19T13:56:52;7.63;;;4.57;;
6463;SDS011;3265;42.694;23.282;2022-08-19T13:59:21;6.25;;;4.68;;
6463;SDS011;3265;42.694;23.282;2022-08-19T14:01:50;9.40;;;4.95;;
6463;SDS011;3265;42.694;23.282;2022-08-19T14:04:16;8.55;;;4.82;;
6463;SDS011;3265;42.694;23.282;2022-08-19T14:06:43;7.00;;;5.00;;
6463;SDS011;3265;42.694;23.282;2022-08-19T14:09:10;7.88;;;5.43;;
6463;SDS011;3265;42.694;23.282;2022-08-19T14:11:37;6.45;;;4.90;;
6463;SDS011;3265;42.694;23.282;2022-08-19T14:14:04;10.35;;;5.75;;
6463;SDS011;3265;42.694;23.282;2022-08-19T14:16:32;9.50;;;5.10;;
6463;SDS011;3265;42.694;23.282;2022-08-19T14:18:59;8.95;;;4.82;;
6463;SDS011;3265;42.694;23.282;2022-08-19T14:21:25;6.57;;;5.05;;
6463;SDS011;3265;42.694;23.282;2022-08-19T14:23:52;8.25;;;5.15;;
6463;SDS011;3265;42.694;23.282;2022-08-19T14:26:20;11.82;;;5.30;;
6463;SDS011;3265;42.694;23.282;2022-08-19T14:28:49;9.07;;;5.03;;
6463;SDS011;3265;42.694;23.282;2022-08-19T14:31:17;6.97;;;4.55;;
6463;SDS011;3265;42.694;23.282;2022-08-19T14:33:46;9.30;;;4.97;;
6463;SDS011;3265;42.694;23.282;2022-08-19T14:36:14;16.77;;;6.18;;
6463;SDS011;3265;42.694;23.282;2022-08-19T14:38:41;6.57;;;5.18;;
6463;SDS011;3265;42.694;23.282;2022-08-19T14:41:10;10.35;;;5.57;;
6463;SDS011;3265;42.694;23.282;2022-08-19T14:43:39;9.93;;;5.03;;
6463;SDS011;3265;42.694;23.282;2022-08-19T14:46:07;10.90;;;5.47;;
6463;SDS011;3265;42.694;23.282;2022-08-19T14:48:35;8.23;;;5.10;;
6463;SDS011;3265;42.694;23.282;2022-08-19T14:51:05;6.47;;;5.18;;
6463;SDS011;3265;42.694;23.282;2022-08-19T14:53:32;8.55;;;4.93;;
6463;SDS011;3265;42.694;23.282;2022-08-19T14:55:59;10.15;;;5.10;;
6463;SDS011;3265;42.694;23.282;2022-08-19T14:58:27;11.23;;;5.30;;
6463;SDS011;3265;42.694;23.282;2022-08-19T15:00:54;11.75;;;5.38;;
6463;SDS011;3265;42.694;23.282;2022-08-19T15:03:21;8.90;;;5.30;;